createdAt,value
2023-02-24T00:02:13.619Z,0
2023-02-24T00:02:54.107Z,0
2023-02-24T00:03:34.632Z,0
2023-02-24T00:04:15.137Z,0
2023-02-24T00:04:55.663Z,0
2023-02-24T00:05:36.172Z,0
2023-02-24T00:06:17.560Z,0
2023-02-24T00:06:58.072Z,0
2023-02-24T00:11:53.223Z,0
2023-02-24T00:12:34.411Z,0
2023-02-24T00:13:16.324Z,0
2023-02-24T00:13:57.504Z,0
2023-02-24T00:16:10.760Z,0
2023-02-24T00:16:51.405Z,0
2023-02-24T00:17:31.899Z,0
2023-02-24T00:18:12.366Z,0
2023-02-24T00:23:48.013Z,0
2023-02-24T00:24:28.539Z,0
2023-02-24T00:25:09.065Z,0
2023-02-24T00:25:49.586Z,0
2023-02-24T00:27:53.010Z,0
2023-02-24T00:28:33.539Z,0
2023-02-24T00:29:14.080Z,0
2023-02-24T00:31:58.281Z,0
2023-02-24T00:32:38.819Z,0
2023-02-24T00:33:19.240Z,0
2023-02-24T00:34:01.283Z,0
2023-02-24T00:36:14.862Z,0
2023-02-24T00:36:55.409Z,0
2023-02-24T00:37:35.960Z,0
2023-02-24T00:38:16.484Z,0
2023-02-24T00:41:39.876Z,0
2023-02-24T00:42:20.404Z,0
2023-02-24T00:43:00.919Z,0
2023-02-24T00:43:41.432Z,0
2023-02-24T00:44:22.647Z,0
2023-02-24T00:45:03.055Z,0
2023-02-24T00:45:43.607Z,0
2023-02-24T00:46:24.154Z,0
2023-02-24T00:51:24.115Z,0
2023-02-24T00:52:04.646Z,0
2023-02-24T00:52:46.031Z,0
2023-02-24T00:56:31.010Z,0
2023-02-24T00:57:11.555Z,0
2023-02-24T00:57:52.046Z,0
2023-02-24T00:58:32.563Z,0
2023-02-24T01:02:35.668Z,0
2023-02-24T01:03:16.183Z,0
2023-02-24T01:03:56.828Z,0
2023-02-24T01:04:37.233Z,0
2023-02-24T01:05:17.751Z,0
2023-02-24T01:05:58.305Z,0
2023-02-24T01:08:36.602Z,0
2023-02-24T01:09:17.136Z,0
2023-02-24T01:09:57.662Z,0
2023-02-24T01:10:38.189Z,0
2023-02-24T01:14:41.504Z,0
2023-02-24T01:15:22.075Z,0
2023-02-24T01:16:02.621Z,0
2023-02-24T01:16:43.096Z,0
2023-02-24T01:17:23.618Z,0
2023-02-24T01:18:04.133Z,0
2023-02-24T01:18:45.594Z,0
2023-02-24T01:21:24.605Z,0
2023-02-24T01:22:05.092Z,0
2023-02-24T01:22:45.622Z,0
2023-02-24T01:23:26.162Z,0
2023-02-24T01:27:29.404Z,0
2023-02-24T01:28:09.904Z,0
2023-02-24T01:28:50.445Z,0
2023-02-24T01:29:30.966Z,0
2023-02-24T01:30:11.499Z,0
2023-02-24T01:30:52.130Z,0
2023-02-24T01:31:32.672Z,0
2023-02-24T01:32:13.408Z,0
2023-02-24T01:32:53.860Z,0
2023-02-24T01:38:59.294Z,0
2023-02-24T01:39:39.820Z,0
2023-02-24T01:40:20.336Z,0
2023-02-24T01:41:00.851Z,0
2023-02-24T01:41:41.378Z,0
2023-02-24T01:42:21.939Z,0
2023-02-24T01:43:02.436Z,0
2023-02-24T01:43:42.960Z,0
2023-02-24T01:44:23.494Z,0
2023-02-24T01:45:04.009Z,0
2023-02-24T01:51:49.198Z,0
2023-02-24T01:52:29.887Z,0
2023-02-24T01:53:10.410Z,0
2023-02-24T01:53:50.972Z,0
2023-02-24T01:56:29.153Z,0
2023-02-24T01:57:09.699Z,0
2023-02-24T01:57:50.225Z,0
2023-02-24T01:58:30.751Z,0
2023-02-24T02:02:34.023Z,0
2023-02-24T02:03:14.432Z,0
2023-02-24T02:03:54.953Z,0
2023-02-24T02:04:35.481Z,0
2023-02-24T02:05:16.017Z,0
2023-02-24T02:05:56.524Z,0
2023-02-24T02:06:37.036Z,0
2023-02-24T02:07:17.557Z,0
2023-02-24T02:07:58.077Z,0
2023-02-24T02:08:38.596Z,0
2023-02-24T02:14:44.098Z,0
2023-02-24T02:15:24.610Z,0
2023-02-24T02:16:05.238Z,0
2023-02-24T02:16:45.699Z,0
2023-02-24T02:17:26.993Z,0
2023-02-24T02:18:07.511Z,0
2023-02-24T02:18:48.011Z,0
2023-02-24T02:19:28.530Z,0
2023-02-24T02:27:05.795Z,0
2023-02-24T02:27:48.161Z,0
2023-02-24T02:28:28.695Z,0
2023-02-24T02:29:10.862Z,0
2023-02-24T02:29:51.424Z,0
2023-02-24T02:32:09.814Z,0
2023-02-24T02:32:50.374Z,0
2023-02-24T02:33:30.792Z,0
2023-02-24T02:34:11.320Z,0
2023-02-24T02:39:48.596Z,0
2023-02-24T02:40:29.903Z,0
2023-02-24T02:41:10.419Z,0
2023-02-24T02:41:51.683Z,0
2023-02-24T02:44:10.331Z,0
2023-02-24T02:44:51.755Z,0
2023-02-24T02:45:32.338Z,0
2023-02-24T02:46:12.882Z,0
2023-02-24T02:48:33.392Z,0
2023-02-24T02:49:13.908Z,0
2023-02-24T02:49:54.425Z,0
2023-02-24T02:50:34.918Z,0
2023-02-24T02:53:30.827Z,0
2023-02-24T02:54:11.353Z,0
2023-02-24T02:54:52.668Z,0
2023-02-24T02:55:33.194Z,0
2023-02-24T02:58:55.797Z,0
2023-02-24T02:59:36.312Z,0
2023-02-24T03:00:17.412Z,0
2023-02-24T03:00:57.993Z,0
2023-02-24T03:01:38.456Z,0
2023-02-24T03:02:19.009Z,0
2023-02-24T03:02:59.510Z,0
2023-02-24T03:03:40.046Z,0
2023-02-24T03:10:25.887Z,0
2023-02-24T03:11:06.455Z,0
2023-02-24T03:11:46.919Z,0
2023-02-24T03:12:27.437Z,0
2023-02-24T03:13:07.987Z,0
2023-02-24T03:13:48.498Z,0
2023-02-24T03:14:29.040Z,0
2023-02-24T03:15:10.269Z,0
2023-02-24T03:18:05.362Z,0
2023-02-24T03:18:46.650Z,0
2023-02-24T03:19:27.112Z,0
2023-02-24T03:20:07.628Z,0
2023-02-24T03:22:22.263Z,0
2023-02-24T03:23:02.863Z,0
2023-02-24T03:23:51.797Z,0
2023-02-24T03:24:34.246Z,0
2023-02-24T03:25:18.376Z,0
2023-02-24T03:26:03.375Z,0
2023-02-24T03:26:55.353Z,0
2023-02-24T03:27:37.447Z,0
2023-02-24T03:28:23.262Z,0
2023-02-24T03:29:11.405Z,0
2023-02-24T03:30:39.787Z,0
2023-02-24T03:31:20.762Z,0
2023-02-24T03:32:48.844Z,0
2023-02-24T03:35:06.940Z,0
2023-02-24T03:35:47.454Z,0
2023-02-24T03:36:27.982Z,0
2023-02-24T03:37:09.324Z,0
2023-02-24T03:40:31.921Z,0
2023-02-24T03:41:12.440Z,0
2023-02-24T03:41:52.962Z,0
2023-02-24T03:42:33.474Z,0
2023-02-24T03:43:16.015Z,0
2023-02-24T03:43:54.507Z,0
2023-02-24T03:44:35.052Z,0
2023-02-24T03:45:15.594Z,0
2023-02-24T03:45:56.350Z,0
2023-02-24T03:52:01.650Z,0
2023-02-24T03:52:42.161Z,0
2023-02-24T03:53:22.699Z,0
2023-02-24T03:54:03.216Z,0
2023-02-24T03:54:43.751Z,0
2023-02-24T03:55:24.275Z,0
2023-02-24T03:56:04.803Z,0
2023-02-24T03:56:45.315Z,0
2023-02-24T03:57:25.847Z,0
2023-02-24T03:58:06.378Z,0
2023-02-24T04:04:51.697Z,0
2023-02-24T04:07:30.163Z,0
2023-02-24T04:08:10.649Z,0
2023-02-24T04:08:51.179Z,0
2023-02-24T04:09:31.684Z,0
2023-02-24T04:13:34.847Z,0
2023-02-24T04:14:15.373Z,0
2023-02-24T04:14:55.888Z,0
2023-02-24T04:15:36.444Z,0
2023-02-24T04:16:16.992Z,0
2023-02-24T04:16:57.476Z,0
2023-02-24T04:17:37.986Z,0
2023-02-24T04:18:18.545Z,0
2023-02-24T04:18:59.042Z,0
2023-02-24T04:19:39.620Z,0
2023-02-24T04:24:58.242Z,0
2023-02-24T04:25:38.740Z,0
2023-02-24T04:26:19.277Z,0
2023-02-24T04:27:01.577Z,0
2023-02-24T04:29:15.814Z,0
2023-02-24T04:29:56.345Z,0
2023-02-24T04:30:36.940Z,0
2023-02-24T04:31:18.375Z,0
2023-02-24T04:34:13.872Z,0
2023-02-24T04:34:54.372Z,0
2023-02-24T04:35:34.904Z,0
2023-02-24T04:36:15.449Z,0
2023-02-24T04:38:18.028Z,0
2023-02-24T04:38:58.586Z,0
2023-02-24T04:39:39.129Z,0
2023-02-24T04:40:19.685Z,0
2023-02-24T04:41:00.200Z,0
2023-02-24T04:41:40.763Z,0
2023-02-24T04:42:21.317Z,0
2023-02-24T04:43:01.860Z,0
2023-02-24T04:43:42.407Z,0
2023-02-24T04:49:48.012Z,0
2023-02-24T04:50:28.561Z,0
2023-02-24T04:51:09.108Z,0
2023-02-24T04:51:49.659Z,0
2023-02-24T04:52:30.214Z,0
2023-02-24T04:53:10.759Z,0
2023-02-24T04:53:51.283Z,0
2023-02-24T04:54:31.830Z,0
2023-02-24T04:55:12.379Z,0
2023-02-24T05:02:49.731Z,0
2023-02-24T05:03:30.431Z,0
2023-02-24T05:04:10.974Z,0
2023-02-24T05:04:51.404Z,0
2023-02-24T05:08:54.531Z,0
2023-02-24T05:09:35.056Z,0
2023-02-24T05:10:15.611Z,0
2023-02-24T05:10:56.970Z,0
2023-02-24T05:11:37.489Z,0
2023-02-24T05:12:18.036Z,0
2023-02-24T05:12:58.975Z,0
2023-02-24T05:13:39.060Z,0
2023-02-24T05:20:24.362Z,0
2023-02-24T05:21:04.894Z,0
2023-02-24T05:21:45.447Z,0
2023-02-24T05:22:25.990Z,0
2023-02-24T05:23:06.510Z,0
2023-02-24T05:23:47.051Z,0
2023-02-24T05:24:27.598Z,0
2023-02-24T05:25:08.115Z,0
2023-02-24T05:25:48.857Z,0
2023-02-24T05:33:05.532Z,0
2023-02-24T05:33:47.740Z,0
2023-02-24T05:34:28.274Z,0
2023-02-24T05:37:10.956Z,0
2023-02-24T05:37:51.309Z,0
2023-02-24T05:38:31.860Z,0
2023-02-24T05:39:12.603Z,0
2023-02-24T05:43:47.180Z,0
2023-02-24T05:44:27.679Z,0
2023-02-24T05:45:08.256Z,0
2023-02-24T05:45:48.787Z,0
2023-02-24T05:50:23.042Z,0
2023-02-24T05:51:05.137Z,0
2023-02-24T05:51:44.120Z,0
2023-02-24T05:52:24.690Z,0
2023-02-24T05:55:48.037Z,0
2023-02-24T05:56:28.688Z,0
2023-02-24T05:57:09.258Z,0
2023-02-24T05:57:49.783Z,0
2023-02-24T05:58:30.306Z,0
2023-02-24T05:59:10.871Z,0
2023-02-24T05:59:51.369Z,0
2023-02-24T06:00:31.922Z,0
2023-02-24T06:01:12.472Z,0
2023-02-24T06:05:28.596Z,0
2023-02-24T06:06:12.734Z,0
2023-02-24T06:06:54.149Z,0
2023-02-24T06:07:34.699Z,0
2023-02-24T06:08:15.206Z,0
2023-02-24T06:08:55.690Z,0
2023-02-24T06:09:36.938Z,0
2023-02-24T06:13:52.493Z,0
2023-02-24T06:14:33.035Z,0
2023-02-24T06:15:13.573Z,0
2023-02-24T06:15:54.105Z,0
2023-02-24T06:20:51.588Z,5
2023-02-24T06:21:32.868Z,5
2023-02-24T06:22:15.974Z,5
2023-02-24T06:23:02.985Z,5
2023-02-24T06:23:47.405Z,5
2023-02-24T06:24:31.471Z,5
2023-02-24T06:25:15.378Z,5
2023-02-24T06:27:26.456Z,5
2023-02-24T06:28:54.687Z,5
2023-02-24T06:31:47.180Z,10
2023-02-24T06:32:29.586Z,10
2023-02-24T06:33:55.884Z,10
2023-02-24T06:34:38.306Z,10
2023-02-24T06:37:27.985Z,10
2023-02-24T06:39:07.069Z,15
2023-02-24T06:39:50.421Z,15
2023-02-24T06:42:34.491Z,20
2023-02-24T06:43:15.609Z,20
2023-02-24T06:43:56.937Z,20
2023-02-24T06:46:24.970Z,20
2023-02-24T06:47:05.391Z,20
2023-02-24T06:47:45.907Z,20
2023-02-24T06:48:26.431Z,20
2023-02-24T06:52:29.619Z,10
2023-02-24T06:53:10.180Z,10
2023-02-24T06:53:50.697Z,10
2023-02-24T06:54:31.248Z,10
2023-02-24T06:55:11.796Z,10
2023-02-24T06:55:52.325Z,15
2023-02-24T06:56:32.843Z,15
2023-02-24T06:57:13.380Z,15
2023-02-24T06:57:53.923Z,15
2023-02-24T06:58:34.461Z,15
2023-02-24T07:05:19.801Z,15
2023-02-24T07:06:00.330Z,15
2023-02-24T07:06:40.865Z,15
2023-02-24T07:07:21.482Z,15
2023-02-24T07:08:01.965Z,15
2023-02-24T07:08:42.511Z,20
2023-02-24T07:09:23.068Z,20
2023-02-24T07:10:03.576Z,20
2023-02-24T07:10:44.090Z,20
2023-02-24T07:14:58.954Z,30
2023-02-24T07:15:39.509Z,25
2023-02-24T07:16:20.094Z,25
2023-02-24T07:17:00.806Z,25
2023-02-24T07:21:03.705Z,25
2023-02-24T07:21:44.275Z,25
2023-02-24T07:22:24.821Z,25
2023-02-24T07:23:05.373Z,25
2023-02-24T07:23:45.895Z,30
2023-02-24T07:24:26.438Z,30
2023-02-24T07:25:06.936Z,30
2023-02-24T07:25:47.464Z,35
2023-02-24T07:26:27.995Z,35
2023-02-24T07:27:08.520Z,35
2023-02-24T07:33:53.727Z,30
2023-02-24T07:34:34.274Z,35
2023-02-24T07:35:14.837Z,35
2023-02-24T07:35:55.341Z,35
2023-02-24T07:36:35.858Z,35
2023-02-24T07:37:16.410Z,35
2023-02-24T07:37:57.459Z,35
2023-02-24T07:38:38.000Z,35
2023-02-24T07:39:18.502Z,35
2023-02-24T07:44:03.587Z,40
2023-02-24T07:44:44.116Z,40
2023-02-24T07:45:24.682Z,45
2023-02-24T07:46:05.279Z,45
2023-02-24T07:48:43.618Z,50
2023-02-24T07:49:24.021Z,50
2023-02-24T07:50:04.538Z,50
2023-02-24T07:50:45.053Z,50
2023-02-24T07:54:59.708Z,65
2023-02-24T07:55:40.236Z,60
2023-02-24T07:56:20.755Z,60
2023-02-24T07:57:01.279Z,60
2023-02-24T08:01:05.097Z,65
2023-02-24T08:03:33.425Z,80
2023-02-24T08:04:14.013Z,85
2023-02-24T08:04:54.540Z,85
2023-02-24T08:05:35.983Z,95
2023-02-24T08:07:52.195Z,80
2023-02-24T08:08:32.698Z,80
2023-02-24T08:09:13.244Z,85
2023-02-24T08:09:53.765Z,85
2023-02-24T08:11:56.275Z,85
2023-02-24T08:12:36.848Z,80
2023-02-24T08:13:17.363Z,75
2023-02-24T08:13:57.881Z,75
2023-02-24T08:14:38.407Z,75
2023-02-24T08:15:19.772Z,75
2023-02-24T08:16:00.347Z,75
2023-02-24T08:18:38.804Z,75
2023-02-24T08:19:19.343Z,75
2023-02-24T08:20:01.470Z,75
2023-02-24T08:20:43.797Z,75
2023-02-24T08:21:24.333Z,75
2023-02-24T08:22:04.844Z,70
2023-02-24T08:22:45.393Z,70
2023-02-24T08:23:26.090Z,70
2023-02-24T08:24:06.604Z,70
2023-02-24T08:24:47.150Z,70
2023-02-24T08:25:27.698Z,65
2023-02-24T08:26:08.266Z,60
2023-02-24T08:31:03.902Z,50
2023-02-24T08:31:44.382Z,45
2023-02-24T08:32:25.607Z,45
2023-02-24T08:33:06.010Z,45
2023-02-24T08:35:34.770Z,40
2023-02-24T08:36:15.305Z,40
2023-02-24T08:36:55.993Z,40
2023-02-24T08:37:36.376Z,40
2023-02-24T08:41:39.508Z,45
2023-02-24T08:42:20.843Z,50
2023-02-24T08:43:01.362Z,50
2023-02-24T08:43:41.898Z,50
2023-02-24T08:44:22.426Z,50
2023-02-24T08:45:02.981Z,50
2023-02-24T08:45:43.464Z,50
2023-02-24T08:46:24.041Z,50
2023-02-24T08:53:09.429Z,70
2023-02-24T08:53:49.957Z,70
2023-02-24T08:54:30.489Z,70
2023-02-24T08:55:11.038Z,70
2023-02-24T08:55:51.566Z,70
2023-02-24T08:56:32.080Z,75
2023-02-24T08:57:12.608Z,75
2023-02-24T08:57:53.751Z,75
2023-02-24T08:58:33.688Z,75
2023-02-24T09:01:28.665Z,70
2023-02-24T09:02:09.184Z,65
2023-02-24T09:02:49.713Z,65
2023-02-24T09:03:30.229Z,65
2023-02-24T09:06:55.753Z,75
2023-02-24T09:07:33.384Z,75
2023-02-24T09:08:13.904Z,75
2023-02-24T09:08:54.419Z,80
2023-02-24T09:09:36.162Z,85
2023-02-24T09:10:16.688Z,90
2023-02-24T09:10:57.220Z,95
2023-02-24T09:17:59.213Z,75
2023-02-24T09:18:40.402Z,75
2023-02-24T09:19:21.901Z,75
2023-02-24T09:20:04.840Z,80
2023-02-24T09:20:49.643Z,95
2023-02-24T09:21:30.948Z,105
2023-02-24T09:22:19.994Z,120
2023-02-24T09:25:04.013Z,100
2023-02-24T09:27:59.942Z,95
2023-02-24T09:28:40.495Z,90
2023-02-24T09:29:21.006Z,85
2023-02-24T09:30:01.537Z,80
2023-02-24T09:34:04.640Z,60
2023-02-24T09:34:45.247Z,55
2023-02-24T09:35:25.758Z,55
2023-02-24T09:36:06.294Z,50
2023-02-24T09:36:46.822Z,50
2023-02-24T09:37:27.331Z,50
2023-02-24T09:38:07.850Z,50
2023-02-24T09:38:48.406Z,50
2023-02-24T09:39:28.936Z,55
2023-02-24T09:40:09.454Z,60
2023-02-24T09:43:47.737Z,65
2023-02-24T09:44:29.072Z,70
2023-02-24T09:45:09.579Z,75
2023-02-24T09:45:51.140Z,75
2023-02-24T09:47:16.810Z,70
2023-02-24T09:49:51.716Z,75
2023-02-24T09:50:59.385Z,80
2023-02-24T09:51:12.760Z,80
2023-02-24T09:51:54.314Z,80
2023-02-24T09:54:36.373Z,85
2023-02-24T09:55:16.898Z,90
2023-02-24T09:55:57.440Z,90
2023-02-24T09:56:37.984Z,95
2023-02-24T09:57:18.584Z,90
2023-02-24T09:57:59.075Z,90
2023-02-24T09:58:43.858Z,85
2023-02-24T09:59:20.140Z,85
2023-02-24T10:00:00.696Z,85
2023-02-24T10:00:41.208Z,85
2023-02-24T10:07:26.572Z,105
2023-02-24T10:08:07.055Z,105
2023-02-24T10:08:47.599Z,105
2023-02-24T10:09:28.133Z,110
2023-02-24T10:10:08.677Z,115
2023-02-24T10:10:49.191Z,120
2023-02-24T10:11:29.701Z,130
2023-02-24T10:12:10.324Z,135
2023-02-24T10:12:50.871Z,140
2023-02-24T10:13:31.376Z,140
2023-02-24T10:20:16.692Z,185
2023-02-24T10:20:57.259Z,195
2023-02-24T10:21:37.733Z,205
2023-02-24T10:22:18.249Z,215
2023-02-24T10:22:58.793Z,220
2023-02-24T10:23:40.779Z,230
2023-02-24T10:24:20.753Z,235
2023-02-24T10:29:35.978Z,270
2023-02-24T10:30:16.496Z,265
2023-02-24T10:30:57.069Z,270
2023-02-24T10:31:37.761Z,275
2023-02-24T10:35:11.379Z,270
2023-02-24T10:35:51.896Z,275
2023-02-24T10:36:32.410Z,285
2023-02-24T10:37:22.560Z,280
2023-02-24T10:41:16.064Z,215
2023-02-24T10:41:58.049Z,215
2023-02-24T10:42:38.399Z,215
2023-02-24T10:43:19.902Z,215
2023-02-24T10:44:00.664Z,220
2023-02-24T10:51:26.411Z,190
2023-02-24T10:52:06.924Z,190
2023-02-24T10:52:47.441Z,195
2023-02-24T10:53:27.971Z,195
2023-02-24T10:54:08.526Z,200
2023-02-24T10:54:49.029Z,205
2023-02-24T10:55:29.602Z,210
2023-02-24T10:56:10.096Z,210
2023-02-24T10:56:50.624Z,210
2023-02-24T11:02:56.289Z,290
2023-02-24T11:03:36.804Z,295
2023-02-24T11:04:17.318Z,295
2023-02-24T11:04:57.844Z,290
2023-02-24T11:05:38.463Z,290
2023-02-24T11:06:18.901Z,290
2023-02-24T11:06:59.419Z,300
2023-02-24T11:07:39.968Z,330
2023-02-24T11:08:20.483Z,350
2023-02-24T11:09:01.025Z,350
2023-02-24T11:14:26.333Z,340
2023-02-24T11:15:06.902Z,375
2023-02-24T11:15:47.472Z,390
2023-02-24T11:16:28.061Z,415
2023-02-24T11:17:08.566Z,405
2023-02-24T11:17:49.148Z,435
2023-02-24T11:18:29.689Z,410
2023-02-24T11:19:10.261Z,375
2023-02-24T11:19:50.758Z,370
2023-02-24T11:29:11.611Z,320
2023-02-24T11:29:52.140Z,390
2023-02-24T11:30:32.688Z,305
2023-02-24T11:31:13.334Z,390
2023-02-24T11:33:56.843Z,235
2023-02-24T11:34:38.163Z,200
2023-02-24T11:35:18.682Z,220
2023-02-24T11:35:59.188Z,230
2023-02-24T11:36:39.704Z,190
2023-02-24T11:39:17.628Z,145
2023-02-24T11:39:48.293Z,155
2023-02-24T11:40:28.835Z,180
2023-02-24T11:41:09.457Z,200
2023-02-24T11:44:04.918Z,255
2023-02-24T11:44:46.303Z,260
2023-02-24T11:45:30.677Z,260
2023-02-24T11:46:12.092Z,265
2023-02-24T11:48:30.249Z,240
2023-02-24T11:49:10.809Z,235
2023-02-24T11:49:51.334Z,230
2023-02-24T11:50:32.720Z,235
2023-02-24T11:52:52.101Z,260
2023-02-24T11:53:32.643Z,285
2023-02-24T11:54:13.194Z,310
2023-02-24T11:54:53.724Z,305
2023-02-24T11:58:28.942Z,325
2023-02-24T11:59:09.164Z,320
2023-02-24T11:59:49.691Z,325
2023-02-24T12:00:31.088Z,340
2023-02-24T12:02:53.460Z,365
2023-02-24T12:03:35.826Z,365
2023-02-24T12:04:17.333Z,360
2023-02-24T12:05:00.659Z,360
2023-02-24T12:05:42.934Z,355
2023-02-24T12:07:07.321Z,335
2023-02-24T12:09:49.009Z,305
2023-02-24T12:10:29.526Z,300
2023-02-24T12:11:13.420Z,295
2023-02-24T12:11:54.492Z,285
2023-02-24T12:12:38.905Z,270
2023-02-24T12:13:26.408Z,270
2023-02-24T12:15:57.055Z,255
2023-02-24T12:16:37.587Z,260
2023-02-24T12:17:18.123Z,265
2023-02-24T12:17:58.540Z,270
2023-02-24T12:21:22.675Z,275
2023-02-24T12:22:02.582Z,275
2023-02-24T12:22:43.112Z,270
2023-02-24T12:23:24.644Z,260
2023-02-24T12:24:06.754Z,250
2023-02-24T12:24:45.687Z,240
2023-02-24T12:25:26.230Z,230
2023-02-24T12:32:11.701Z,210
2023-02-24T12:32:52.288Z,210
2023-02-24T12:33:32.700Z,210
2023-02-24T12:34:13.220Z,210
2023-02-24T12:34:53.742Z,215
2023-02-24T12:35:34.272Z,215
2023-02-24T12:36:14.974Z,215
2023-02-24T12:36:55.609Z,215
2023-02-24T12:37:36.033Z,210
2023-02-24T12:38:16.552Z,210
2023-02-24T12:43:01.958Z,225
2023-02-24T12:43:42.557Z,220
2023-02-24T12:44:23.087Z,215
2023-02-24T12:45:03.618Z,210
2023-02-24T12:45:44.160Z,210
2023-02-24T12:46:24.701Z,205
2023-02-24T12:47:05.296Z,205
2023-02-24T12:47:45.826Z,210
2023-02-24T12:48:26.373Z,205
2023-02-24T12:53:51.530Z,200
2023-02-24T12:54:32.048Z,190
2023-02-24T12:55:12.606Z,180
2023-02-24T12:55:53.137Z,170
2023-02-24T12:56:33.683Z,165
2023-02-24T12:57:14.222Z,160
2023-02-24T12:57:54.772Z,170
2023-02-24T12:58:35.310Z,180
2023-02-24T12:59:15.773Z,175
2023-02-24T13:04:41.713Z,245
2023-02-24T13:05:22.220Z,250
2023-02-24T13:06:02.764Z,255
2023-02-24T13:06:43.268Z,255
2023-02-24T13:07:23.803Z,255
2023-02-24T13:08:04.323Z,255
2023-02-24T13:08:44.967Z,255
2023-02-24T13:09:25.537Z,255
2023-02-24T13:12:03.869Z,235
2023-02-24T13:12:44.362Z,230
2023-02-24T13:13:25.643Z,215
2023-02-24T13:14:06.196Z,200
2023-02-24T13:16:48.507Z,185
2023-02-24T13:17:29.053Z,165
2023-02-24T13:18:09.566Z,155
2023-02-24T13:18:50.118Z,165
2023-02-24T13:19:31.676Z,170
2023-02-24T13:20:12.308Z,175
2023-02-24T13:20:52.729Z,145
2023-02-24T13:21:33.262Z,140
2023-02-24T13:27:38.836Z,120
2023-02-24T13:28:19.425Z,125
2023-02-24T13:29:00.107Z,125
2023-02-24T13:29:40.507Z,130
2023-02-24T13:30:21.062Z,125
2023-02-24T13:31:01.642Z,120
2023-02-24T13:31:42.197Z,110
2023-02-24T13:32:22.730Z,100
2023-02-24T13:33:03.220Z,90
2023-02-24T13:39:08.722Z,85
2023-02-24T13:39:49.261Z,85
2023-02-24T13:44:08.958Z,80
2023-02-24T13:44:49.476Z,80
2023-02-24T13:45:29.996Z,85
2023-02-24T13:46:10.559Z,85
2023-02-24T13:49:33.180Z,60
2023-02-24T13:50:13.706Z,60
2023-02-24T13:50:54.248Z,60
2023-02-24T13:51:34.778Z,55
2023-02-24T13:52:15.280Z,55
2023-02-24T13:52:55.825Z,55
2023-02-24T13:55:33.960Z,45
2023-02-24T13:56:14.466Z,45
2023-02-24T13:56:54.970Z,50
2023-02-24T13:57:35.500Z,50
2023-02-24T14:00:58.611Z,50
2023-02-24T14:01:39.155Z,50
2023-02-24T14:02:19.661Z,50
2023-02-24T14:03:00.164Z,50
2023-02-24T14:03:41.191Z,55
2023-02-24T14:04:21.677Z,55
2023-02-24T14:05:02.216Z,50
2023-02-24T14:05:42.735Z,50
2023-02-24T14:06:23.586Z,50
2023-02-24T14:12:28.609Z,60
2023-02-24T14:13:09.157Z,60
2023-02-24T14:13:49.663Z,60
2023-02-24T14:14:31.803Z,65
2023-02-24T14:15:13.100Z,65
2023-02-24T14:19:27.972Z,60
2023-02-24T14:20:08.633Z,55
2023-02-24T14:20:49.148Z,60
2023-02-24T14:21:29.638Z,65
2023-02-24T14:25:03.764Z,80
2023-02-24T14:25:44.311Z,80
2023-02-24T14:26:24.842Z,80
2023-02-24T14:27:05.379Z,80
2023-02-24T14:33:04.997Z,80
2023-02-24T14:33:45.477Z,70
2023-02-24T14:34:26.001Z,65
2023-02-24T14:35:07.110Z,65
2023-02-24T14:39:07.709Z,65
2023-02-24T14:39:50.159Z,70
2023-02-24T14:40:30.785Z,70
2023-02-24T14:41:12.068Z,65
2023-02-24T14:41:52.577Z,65
2023-02-24T14:42:33.116Z,70
2023-02-24T14:43:13.606Z,80
2023-02-24T14:43:54.662Z,80
2023-02-24T14:44:35.182Z,75
2023-02-24T14:52:14.867Z,75
2023-02-24T14:52:55.454Z,75
2023-02-24T14:53:36.935Z,75
2023-02-24T14:54:17.470Z,75
2023-02-24T14:56:52.311Z,75
2023-02-24T14:57:32.822Z,70
2023-02-24T14:58:14.238Z,65
2023-02-24T14:58:54.763Z,65
2023-02-24T15:02:19.460Z,60
2023-02-24T15:02:57.949Z,60
2023-02-24T15:03:38.490Z,60
2023-02-24T15:04:18.920Z,60
2023-02-24T15:04:59.423Z,60
2023-02-24T15:05:39.947Z,60
2023-02-24T15:06:20.810Z,55
2023-02-24T15:07:00.972Z,55
2023-02-24T15:07:42.419Z,55
2023-02-24T15:11:57.137Z,45
2023-02-24T15:12:37.655Z,45
2023-02-24T15:13:18.218Z,45
2023-02-24T15:13:58.777Z,45
2023-02-24T15:16:11.893Z,55
2023-02-24T15:16:52.322Z,55
2023-02-24T15:17:32.908Z,55
2023-02-24T15:18:13.449Z,60
2023-02-24T15:20:32.146Z,60
2023-02-24T15:21:12.657Z,65
2023-02-24T15:21:53.181Z,65
2023-02-24T15:22:33.713Z,65
2023-02-24T15:25:56.934Z,55
2023-02-24T15:29:33.830Z,40
2023-02-24T15:30:14.308Z,40
2023-02-24T15:30:54.979Z,35
2023-02-24T15:31:35.392Z,35
2023-02-24T15:35:38.417Z,35
2023-02-24T15:36:19.884Z,40
2023-02-24T15:37:00.107Z,40
2023-02-24T15:37:41.193Z,40
2023-02-24T15:40:09.187Z,45
2023-02-24T15:40:49.696Z,45
2023-02-24T15:41:30.245Z,40
2023-02-24T15:42:10.793Z,40
2023-02-24T15:46:14.070Z,35
2023-02-24T15:46:54.702Z,35
2023-02-24T15:47:35.130Z,30
2023-02-24T15:48:15.626Z,30
2023-02-24T15:48:56.139Z,25
2023-02-24T15:49:36.663Z,25
2023-02-24T15:50:17.202Z,25
2023-02-24T15:50:57.774Z,25
2023-02-24T15:54:32.421Z,20
2023-02-24T15:55:12.939Z,20
2023-02-24T15:55:54.311Z,25
2023-02-24T15:56:34.846Z,25
2023-02-24T15:58:37.333Z,30
2023-02-24T16:00:51.159Z,30
2023-02-24T16:01:32.648Z,35
2023-02-24T16:02:13.640Z,35
2023-02-24T16:02:56.849Z,40
2023-02-24T16:03:37.360Z,40
2023-02-24T16:04:17.908Z,40
2023-02-24T16:04:58.362Z,40
2023-02-24T16:07:45.073Z,30
2023-02-24T16:10:16.068Z,20
2023-02-24T16:10:56.592Z,20
2023-02-24T16:11:37.110Z,20
2023-02-24T16:12:18.255Z,20
2023-02-24T16:17:53.341Z,15
2023-02-24T16:18:34.502Z,15
2023-02-24T16:19:15.018Z,15
2023-02-24T16:19:55.531Z,15
2023-02-24T16:23:14.561Z,10
2023-02-24T16:23:55.048Z,10
2023-02-24T16:24:35.538Z,10
2023-02-24T16:25:16.048Z,10
2023-02-24T16:29:59.619Z,10
2023-02-24T16:30:40.287Z,10
2023-02-24T16:31:20.899Z,10
2023-02-24T16:32:01.424Z,10
2023-02-24T16:32:41.797Z,10
2023-02-24T16:33:22.462Z,10
2023-02-24T16:34:03.028Z,10
2023-02-24T16:34:43.310Z,10
2023-02-24T16:35:23.842Z,10
2023-02-24T16:38:18.024Z,10
2023-02-24T16:39:07.080Z,10
2023-02-24T16:39:48.590Z,10
2023-02-24T16:40:30.000Z,10
2023-02-24T16:41:16.998Z,10
2023-02-24T16:41:58.328Z,10
2023-02-24T16:45:29.866Z,10
2023-02-24T16:46:10.453Z,10
2023-02-24T16:46:50.944Z,10
2023-02-24T16:47:31.501Z,10
2023-02-24T16:51:34.739Z,10
2023-02-24T16:52:15.262Z,10
2023-02-24T16:52:55.758Z,10
2023-02-24T16:53:36.297Z,10
2023-02-24T16:54:16.793Z,10
2023-02-24T16:54:57.328Z,5
2023-02-24T16:55:37.891Z,5
2023-02-24T16:56:18.417Z,5
2023-02-24T16:58:56.908Z,5
2023-02-24T16:59:37.429Z,5
2023-02-24T17:00:17.960Z,5
2023-02-24T17:00:58.537Z,5
2023-02-24T17:04:21.964Z,0
2023-02-24T17:05:02.480Z,0
2023-02-24T17:05:44.307Z,0
2023-02-24T17:06:24.592Z,0
2023-02-24T17:07:04.692Z,0
2023-02-24T17:07:45.216Z,0
2023-02-24T17:08:25.775Z,0
2023-02-24T17:09:06.295Z,0
2023-02-24T17:14:42.520Z,0
2023-02-24T17:15:23.029Z,0
2023-02-24T17:16:04.354Z,0
2023-02-24T17:16:44.956Z,0
2023-02-24T17:20:07.502Z,0
2023-02-24T17:20:47.991Z,0
2023-02-24T17:21:28.527Z,0
2023-02-24T17:22:09.079Z,0
2023-02-24T17:22:49.591Z,0
2023-02-24T17:23:30.143Z,0
2023-02-24T17:24:10.689Z,0
2023-02-24T17:24:51.194Z,0
2023-02-24T17:25:31.734Z,0
2023-02-24T17:30:29.642Z,0
2023-02-24T17:31:11.158Z,0
2023-02-24T17:31:51.804Z,0
2023-02-24T17:34:30.983Z,0
2023-02-24T17:35:11.490Z,0
2023-02-24T17:35:51.985Z,0
2023-02-24T17:36:33.459Z,0
2023-02-24T17:39:16.411Z,0
2023-02-24T17:39:57.553Z,0
2023-02-24T17:40:38.873Z,0
2023-02-24T17:41:19.376Z,0
2023-02-24T17:41:59.905Z,0
2023-02-24T17:42:41.388Z,0
2023-02-24T17:46:45.945Z,0
2023-02-24T17:47:26.451Z,0
2023-02-24T17:48:06.963Z,0
2023-02-24T17:48:47.484Z,0
2023-02-24T17:49:28.005Z,0
2023-02-24T17:50:08.571Z,0
2023-02-24T17:50:49.046Z,0
2023-02-24T17:51:29.560Z,0
2023-02-24T17:52:10.108Z,0
2023-02-24T17:52:50.610Z,0
2023-02-24T17:59:35.852Z,0
2023-02-24T18:00:16.433Z,0
2023-02-24T18:00:56.995Z,0
2023-02-24T18:01:37.479Z,0
2023-02-24T18:02:18.182Z,0
2023-02-24T18:02:58.653Z,0
2023-02-24T18:03:39.154Z,0
2023-02-24T18:04:19.651Z,0
2023-02-24T18:05:00.187Z,0
2023-02-24T18:08:35.290Z,0
2023-02-24T18:09:15.825Z,0
2023-02-24T18:09:56.439Z,0
2023-02-24T18:10:37.772Z,0
2023-02-24T18:12:53.488Z,0
2023-02-24T18:13:33.995Z,0
2023-02-24T18:14:14.508Z,0
2023-02-24T18:15:07.159Z,0
2023-02-24T18:18:58.085Z,0
2023-02-24T18:19:38.611Z,0